Impacts METAR Board INFO
IDs:

KMCO - Orlando Intl, FL, US

Updated at: 1800 UTC 22 Jan 2018
Potential Impact None Slight Moderate High
Time22/06Z 22/07Z 22/08Z 22/09Z 22/10Z 22/11Z 22/12Z 22/13Z 22/14Z 22/15Z 22/16Z 22/17Z 22/18Z
VIS10 10 10 10 8 4 2 6 10 10 10 10 10
CIG26 -- -- -- -- -- -- -- -- -- -- 30 --
CoverBKNSCTSCTSCTFEWSCTSCTCLRFEWFEWSCTBKNSCT
FltCatMVFRVFRVFRVFRVFRMVFRIFRVFRVFRVFRVFRMVFRVFR
WX----------BRBRBR----------
WDir50103000080120120120120140130
WSpd3 3 3 0 0 0 3 3 8 10 13 11 14
WGst-- -- -- -- -- -- -- -- -- -- -- -- 17
Raw hourly METARs
KMCO 220553Z 05003KT 10SM BKN026 16/16 A3016 RMK AO2 SLP209 T01560156 10194 20150 58012
KMCO 220653Z 01003KT 10SM SCT030 15/14 A3015 RMK AO2 SLP206 T01500144
KMCO 220753Z 03003KT 10SM SCT028 14/14 A3013 RMK AO2 SLP202 T01390139
KMCO 220853Z 00000KT 10SM R35L/4500VP6000FT FEW028 SCT250 14/14 A3013 RMK AO2 SLP200 T01440144 56010
KMCO 220953Z 00000KT 8SM R35L/2000V5000FT FEW250 14/14 A3012 RMK AO2 SLP198 T01390139
KMCO 221102Z 00000KT 4SM R35L/1600V4500FT BR FEW012 SCT250 15/15 A3013 RMK AO2 T01500150
KMCO 221204Z 08003KT 2SM R35L/3500V6000FT BR SCT012 14/14 A3014 RMK AO2 T01390139
KMCO 221253Z 12003KT 6SM R35L/3000VP6000FT BR CLR 15/15 A3015 RMK AO2 SLP206 T01500150
KMCO 221353Z 12008KT 10SM FEW250 18/18 A3015 RMK AO2 SLP208 T01830183
KMCO 221453Z 12010KT 10SM FEW250 22/18 A3016 RMK AO2 SLP212 T02220183 52009
KMCO 221553Z 12013KT 10SM SCT022 SCT090 24/18 A3016 RMK AO2 SLP210 T02440183
KMCO 221653Z 14011KT 10SM BKN030 BKN037 25/17 A3013 RMK AO2 SLP202 T02500172
KMCO 221753Z 13014G17KT 10SM SCT033 27/17 A3009 RMK AO2 SLP186 T02720172 10272 20133 58025